sensor_id;sensor_type;location;lat;lon;timestamp;temperature;humidity
3868;DHT22;1949;48.152;11.528;2023-04-01T00:01:00;12.60;46.00
3868;DHT22;1949;48.152;11.528;2023-04-01T00:03:26;12.50;46.70
3868;DHT22;1949;48.152;11.528;2023-04-01T00:05:56;12.60;46.40
3868;DHT22;1949;48.152;11.528;2023-04-01T00:08:23;12.60;46.40
3868;DHT22;1949;48.152;11.528;2023-04-01T00:10:49;12.70;46.30
3868;DHT22;1949;48.152;11.528;2023-04-01T00:13:15;12.50;46.10
3868;DHT22;1949;48.152;11.528;2023-04-01T00:15:43;12.50;46.20
3868;DHT22;1949;48.152;11.528;2023-04-01T00:18:08;12.50;46.30
3868;DHT22;1949;48.152;11.528;2023-04-01T00:20:35;12.50;46.20
3868;DHT22;1949;48.152;11.528;2023-04-01T00:23:00;12.40;46.10
3868;DHT22;1949;48.152;11.528;2023-04-01T00:25:26;12.40;46.20
3868;DHT22;1949;48.152;11.528;2023-04-01T00:27:52;12.40;46.30
3868;DHT22;1949;48.152;11.528;2023-04-01T00:30:18;12.30;46.80
3868;DHT22;1949;48.152;11.528;2023-04-01T00:32:44;12.30;46.20
3868;DHT22;1949;48.152;11.528;2023-04-01T00:35:10;12.30;46.50
3868;DHT22;1949;48.152;11.528;2023-04-01T00:37:37;12.30;46.50
3868;DHT22;1949;48.152;11.528;2023-04-01T00:42:53;12.30;46.50
3868;DHT22;1949;48.152;11.528;2023-04-01T00:45:35;12.40;46.70
3868;DHT22;1949;48.152;11.528;2023-04-01T00:48:09;12.40;46.70
3868;DHT22;1949;48.152;11.528;2023-04-01T00:50:37;12.50;46.50
3868;DHT22;1949;48.152;11.528;2023-04-01T00:53:05;12.40;46.40
3868;DHT22;1949;48.152;11.528;2023-04-01T00:55:36;12.40;46.40
3868;DHT22;1949;48.152;11.528;2023-04-01T00:58:07;12.40;46.70
3868;DHT22;1949;48.152;11.528;2023-04-01T01:00:36;12.50;46.80
3868;DHT22;1949;48.152;11.528;2023-04-01T01:03:03;12.50;46.50
3868;DHT22;1949;48.152;11.528;2023-04-01T01:08:17;12.50;46.30
3868;DHT22;1949;48.152;11.528;2023-04-01T01:10:49;12.50;46.70
3868;DHT22;1949;48.152;11.528;2023-04-01T01:13:43;12.50;46.40
3868;DHT22;1949;48.152;11.528;2023-04-01T01:16:28;12.50;46.50
3868;DHT22;1949;48.152;11.528;2023-04-01T01:24:56;12.40;46.40
3868;DHT22;1949;48.152;11.528;2023-04-01T01:27:29;12.40;46.60
3868;DHT22;1949;48.152;11.528;2023-04-01T01:33:25;12.50;46.90
3868;DHT22;1949;48.152;11.528;2023-04-01T01:35:59;12.60;46.70
3868;DHT22;1949;48.152;11.528;2023-04-01T01:38:31;12.60;46.60
3868;DHT22;1949;48.152;11.528;2023-04-01T01:40:59;12.60;46.60
3868;DHT22;1949;48.152;11.528;2023-04-01T01:43:32;12.60;46.60
3868;DHT22;1949;48.152;11.528;2023-04-01T01:46:06;12.60;47.10
3868;DHT22;1949;48.152;11.528;2023-04-01T01:48:34;12.60;46.40
3868;DHT22;1949;48.152;11.528;2023-04-01T01:51:01;12.60;46.40
3868;DHT22;1949;48.152;11.528;2023-04-01T01:53:28;12.60;46.60
3868;DHT22;1949;48.152;11.528;2023-04-01T01:55:55;12.60;46.60
3868;DHT22;1949;48.152;11.528;2023-04-01T01:58:25;12.60;46.80
3868;DHT22;1949;48.152;11.528;2023-04-01T02:01:00;12.70;46.90
3868;DHT22;1949;48.152;11.528;2023-04-01T02:03:29;12.70;46.70
3868;DHT22;1949;48.152;11.528;2023-04-01T02:05:58;12.80;46.60
3868;DHT22;1949;48.152;11.528;2023-04-01T02:08:50;12.80;46.70
3868;DHT22;1949;48.152;11.528;2023-04-01T02:11:18;12.80;47.00
3868;DHT22;1949;48.152;11.528;2023-04-01T02:14:15;12.80;46.40
3868;DHT22;1949;48.152;11.528;2023-04-01T02:17:37;12.80;46.30
3868;DHT22;1949;48.152;11.528;2023-04-01T02:20:06;12.80;46.40
3868;DHT22;1949;48.152;11.528;2023-04-01T02:22:38;12.70;46.20
3868;DHT22;1949;48.152;11.528;2023-04-01T02:25:07;12.70;46.30
3868;DHT22;1949;48.152;11.528;2023-04-01T02:27:34;12.60;46.40
3868;DHT22;1949;48.152;11.528;2023-04-01T02:30:01;12.70;46.70
3868;DHT22;1949;48.152;11.528;2023-04-01T02:32:28;12.70;46.40
3868;DHT22;1949;48.152;11.528;2023-04-01T02:34:55;12.60;46.40
3868;DHT22;1949;48.152;11.528;2023-04-01T02:37:21;12.60;46.30
3868;DHT22;1949;48.152;11.528;2023-04-01T02:39:47;12.60;46.40
3868;DHT22;1949;48.152;11.528;2023-04-01T02:42:14;12.60;46.50
3868;DHT22;1949;48.152;11.528;2023-04-01T02:44:40;12.60;46.50
3868;DHT22;1949;48.152;11.528;2023-04-01T02:47:05;12.50;46.30
3868;DHT22;1949;48.152;11.528;2023-04-01T02:49:31;12.60;46.50
3868;DHT22;1949;48.152;11.528;2023-04-01T02:51:57;12.50;46.40
3868;DHT22;1949;48.152;11.528;2023-04-01T02:54:22;12.40;46.50
3868;DHT22;1949;48.152;11.528;2023-04-01T02:56:48;12.50;46.70
3868;DHT22;1949;48.152;11.528;2023-04-01T02:59:13;12.50;46.50
3868;DHT22;1949;48.152;11.528;2023-04-01T03:01:39;12.50;46.40
3868;DHT22;1949;48.152;11.528;2023-04-01T03:04:05;12.50;46.50
3868;DHT22;1949;48.152;11.528;2023-04-01T03:06:31;12.50;46.50
3868;DHT22;1949;48.152;11.528;2023-04-01T03:08:57;12.50;46.50
3868;DHT22;1949;48.152;11.528;2023-04-01T03:11:24;12.50;46.50
3868;DHT22;1949;48.152;11.528;2023-04-01T03:13:51;12.60;46.70
3868;DHT22;1949;48.152;11.528;2023-04-01T03:16:18;12.60;46.40
3868;DHT22;1949;48.152;11.528;2023-04-01T03:18:43;12.60;46.60
3868;DHT22;1949;48.152;11.528;2023-04-01T03:21:20;12.60;46.40
3868;DHT22;1949;48.152;11.528;2023-04-01T03:23:47;12.60;46.40
3868;DHT22;1949;48.152;11.528;2023-04-01T03:26:13;12.50;46.30
3868;DHT22;1949;48.152;11.528;2023-04-01T03:28:39;12.50;46.50
3868;DHT22;1949;48.152;11.528;2023-04-01T03:31:05;12.50;46.40
3868;DHT22;1949;48.152;11.528;2023-04-01T03:33:32;12.50;46.30
3868;DHT22;1949;48.152;11.528;2023-04-01T03:35:58;12.50;46.20
3868;DHT22;1949;48.152;11.528;2023-04-01T03:38:23;12.40;46.30
3868;DHT22;1949;48.152;11.528;2023-04-01T03:40:49;12.30;46.40
3868;DHT22;1949;48.152;11.528;2023-04-01T03:43:15;12.30;46.30
3868;DHT22;1949;48.152;11.528;2023-04-01T03:45:46;12.30;46.50
3868;DHT22;1949;48.152;11.528;2023-04-01T03:48:13;12.30;46.30
3868;DHT22;1949;48.152;11.528;2023-04-01T03:50:40;12.30;46.50
3868;DHT22;1949;48.152;11.528;2023-04-01T03:53:07;12.30;46.50
3868;DHT22;1949;48.152;11.528;2023-04-01T03:55:35;12.30;46.40
3868;DHT22;1949;48.152;11.528;2023-04-01T03:58:01;12.30;46.50
3868;DHT22;1949;48.152;11.528;2023-04-01T04:00:31;12.30;46.60
3868;DHT22;1949;48.152;11.528;2023-04-01T04:02:57;12.30;46.50
3868;DHT22;1949;48.152;11.528;2023-04-01T04:05:24;12.30;46.50
3868;DHT22;1949;48.152;11.528;2023-04-01T04:07:52;12.30;46.70
3868;DHT22;1949;48.152;11.528;2023-04-01T04:10:17;12.40;46.60
3868;DHT22;1949;48.152;11.528;2023-04-01T04:12:43;12.30;46.70
3868;DHT22;1949;48.152;11.528;2023-04-01T04:15:10;12.40;46.80
3868;DHT22;1949;48.152;11.528;2023-04-01T04:17:35;12.40;46.70
3868;DHT22;1949;48.152;11.528;2023-04-01T04:20:01;12.40;46.60
3868;DHT22;1949;48.152;11.528;2023-04-01T04:22:28;12.40;46.60
3868;DHT22;1949;48.152;11.528;2023-04-01T04:24:54;12.40;46.60
3868;DHT22;1949;48.152;11.528;2023-04-01T04:27:19;12.40;46.60
3868;DHT22;1949;48.152;11.528;2023-04-01T04:29:45;12.40;46.80
3868;DHT22;1949;48.152;11.528;2023-04-01T04:32:11;12.40;46.80
3868;DHT22;1949;48.152;11.528;2023-04-01T04:34:37;12.40;46.70
3868;DHT22;1949;48.152;11.528;2023-04-01T04:37:03;12.40;46.80
3868;DHT22;1949;48.152;11.528;2023-04-01T04:39:29;12.40;46.50
3868;DHT22;1949;48.152;11.528;2023-04-01T04:41:55;12.40;46.90
3868;DHT22;1949;48.152;11.528;2023-04-01T04:44:20;12.50;46.90
3868;DHT22;1949;48.152;11.528;2023-04-01T04:46:46;12.50;46.80
3868;DHT22;1949;48.152;11.528;2023-04-01T04:49:13;12.50;46.70
3868;DHT22;1949;48.152;11.528;2023-04-01T04:51:39;12.50;46.70
3868;DHT22;1949;48.152;11.528;2023-04-01T04:54:05;12.60;46.90
3868;DHT22;1949;48.152;11.528;2023-04-01T04:56:31;12.60;46.70
3868;DHT22;1949;48.152;11.528;2023-04-01T04:58:58;12.60;46.60
3868;DHT22;1949;48.152;11.528;2023-04-01T05:01:24;12.40;46.40
3868;DHT22;1949;48.152;11.528;2023-04-01T05:03:50;12.50;46.60
3868;DHT22;1949;48.152;11.528;2023-04-01T05:06:17;12.50;46.60
3868;DHT22;1949;48.152;11.528;2023-04-01T05:08:44;12.50;46.90
3868;DHT22;1949;48.152;11.528;2023-04-01T05:11:18;12.60;47.10
3868;DHT22;1949;48.152;11.528;2023-04-01T05:13:44;12.60;46.60
3868;DHT22;1949;48.152;11.528;2023-04-01T05:16:15;12.60;46.60
3868;DHT22;1949;48.152;11.528;2023-04-01T05:18:41;12.60;46.60
3868;DHT22;1949;48.152;11.528;2023-04-01T05:21:09;12.50;46.40
3868;DHT22;1949;48.152;11.528;2023-04-01T05:23:35;12.60;46.60
3868;DHT22;1949;48.152;11.528;2023-04-01T05:26:11;12.50;46.60
3868;DHT22;1949;48.152;11.528;2023-04-01T05:28:38;12.50;46.50
3868;DHT22;1949;48.152;11.528;2023-04-01T05:31:09;12.50;46.50
3868;DHT22;1949;48.152;11.528;2023-04-01T05:33:35;12.50;46.40
3868;DHT22;1949;48.152;11.528;2023-04-01T05:36:13;12.50;46.50
3868;DHT22;1949;48.152;11.528;2023-04-01T05:38:39;12.40;46.50
3868;DHT22;1949;48.152;11.528;2023-04-01T05:41:05;12.40;46.50
3868;DHT22;1949;48.152;11.528;2023-04-01T05:43:32;12.40;46.50
3868;DHT22;1949;48.152;11.528;2023-04-01T05:45:58;12.40;46.40
3868;DHT22;1949;48.152;11.528;2023-04-01T05:48:24;12.40;46.50
3868;DHT22;1949;48.152;11.528;2023-04-01T05:50:51;12.40;47.20
3868;DHT22;1949;48.152;11.528;2023-04-01T05:53:18;12.40;46.60
3868;DHT22;1949;48.152;11.528;2023-04-01T05:55:43;12.50;46.70
3868;DHT22;1949;48.152;11.528;2023-04-01T05:58:09;12.60;46.70
3868;DHT22;1949;48.152;11.528;2023-04-01T06:00:35;12.60;46.60
3868;DHT22;1949;48.152;11.528;2023-04-01T06:03:00;12.70;46.60
3868;DHT22;1949;48.152;11.528;2023-04-01T06:05:33;12.70;46.40
3868;DHT22;1949;48.152;11.528;2023-04-01T06:08:10;12.70;46.40
3868;DHT22;1949;48.152;11.528;2023-04-01T06:14:04;12.80;46.30
3868;DHT22;1949;48.152;11.528;2023-04-01T06:22:11;12.80;46.00
3868;DHT22;1949;48.152;11.528;2023-04-01T06:24:49;12.70;45.90
3868;DHT22;1949;48.152;11.528;2023-04-01T06:30:45;12.60;46.20
3868;DHT22;1949;48.152;11.528;2023-04-01T06:37:05;12.60;46.20
3868;DHT22;1949;48.152;11.528;2023-04-01T06:45:20;12.70;46.00
3868;DHT22;1949;48.152;11.528;2023-04-01T06:51:30;12.80;46.10
3868;DHT22;1949;48.152;11.528;2023-04-01T06:53:54;12.80;45.90
3868;DHT22;1949;48.152;11.528;2023-04-01T06:56:22;12.80;46.00
3868;DHT22;1949;48.152;11.528;2023-04-01T06:59:15;12.90;46.10
3868;DHT22;1949;48.152;11.528;2023-04-01T07:02:23;13.00;46.30
3868;DHT22;1949;48.152;11.528;2023-04-01T07:04:48;13.00;45.90
3868;DHT22;1949;48.152;11.528;2023-04-01T07:13:41;13.00;45.70
3868;DHT22;1949;48.152;11.528;2023-04-01T07:16:19;13.00;45.70
3868;DHT22;1949;48.152;11.528;2023-04-01T07:19:37;13.00;45.90
3868;DHT22;1949;48.152;11.528;2023-04-01T07:21:58;13.00;45.50
3868;DHT22;1949;48.152;11.528;2023-04-01T07:24:33;13.00;45.50
3868;DHT22;1949;48.152;11.528;2023-04-01T07:27:00;13.00;45.30
3868;DHT22;1949;48.152;11.528;2023-04-01T07:29:26;13.00;45.60
3868;DHT22;1949;48.152;11.528;2023-04-01T07:32:16;13.00;45.70
3868;DHT22;1949;48.152;11.528;2023-04-01T07:35:26;13.00;45.50
3868;DHT22;1949;48.152;11.528;2023-04-01T07:41:04;13.10;45.70
3868;DHT22;1949;48.152;11.528;2023-04-01T07:52:12;13.40;45.50
3868;DHT22;1949;48.152;11.528;2023-04-01T07:54:52;13.40;45.50
3868;DHT22;1949;48.152;11.528;2023-04-01T08:06:05;13.60;45.30
3868;DHT22;1949;48.152;11.528;2023-04-01T08:11:44;13.50;45.10
3868;DHT22;1949;48.152;11.528;2023-04-01T08:14:25;13.50;44.90
3868;DHT22;1949;48.152;11.528;2023-04-01T08:22:11;13.40;44.80
3868;DHT22;1949;48.152;11.528;2023-04-01T08:24:44;13.40;45.00
3868;DHT22;1949;48.152;11.528;2023-04-01T08:27:26;13.40;44.90
3868;DHT22;1949;48.152;11.528;2023-04-01T08:30:02;13.40;45.00
3868;DHT22;1949;48.152;11.528;2023-04-01T08:32:36;13.50;45.10
3868;DHT22;1949;48.152;11.528;2023-04-01T08:35:16;13.50;44.90
3868;DHT22;1949;48.152;11.528;2023-04-01T08:37:45;13.50;44.90
3868;DHT22;1949;48.152;11.528;2023-04-01T08:43:35;13.60;44.90
3868;DHT22;1949;48.152;11.528;2023-04-01T08:49:04;13.70;45.00
3868;DHT22;1949;48.152;11.528;2023-04-01T09:00:13;13.90;44.50
3868;DHT22;1949;48.152;11.528;2023-04-01T09:08:47;14.00;44.60
3868;DHT22;1949;48.152;11.528;2023-04-01T09:22:03;14.10;44.20
3868;DHT22;1949;48.152;11.528;2023-04-01T09:27:32;14.10;44.30
3868;DHT22;1949;48.152;11.528;2023-04-01T09:30:06;14.10;44.10
3868;DHT22;1949;48.152;11.528;2023-04-01T09:33:38;14.10;44.20
3868;DHT22;1949;48.152;11.528;2023-04-01T09:41:39;14.20;43.90
3868;DHT22;1949;48.152;11.528;2023-04-01T10:15:17;14.60;43.70
3868;DHT22;1949;48.152;11.528;2023-04-01T10:18:00;14.60;43.50
3868;DHT22;1949;48.152;11.528;2023-04-01T10:23:21;14.70;43.60
3868;DHT22;1949;48.152;11.528;2023-04-01T10:26:11;14.70;43.40
3868;DHT22;1949;48.152;11.528;2023-04-01T10:40:31;14.70;43.30
3868;DHT22;1949;48.152;11.528;2023-04-01T10:43:31;14.70;43.40
3868;DHT22;1949;48.152;11.528;2023-04-01T10:58:03;14.60;43.30
3868;DHT22;1949;48.152;11.528;2023-04-01T11:01:30;14.60;43.40
3868;DHT22;1949;48.152;11.528;2023-04-01T11:39:50;14.30;44.60
3868;DHT22;1949;48.152;11.528;2023-04-01T11:45:39;14.40;44.60
3868;DHT22;1949;48.152;11.528;2023-04-01T11:48:42;14.40;44.40
3868;DHT22;1949;48.152;11.528;2023-04-01T11:57:48;14.10;44.30
3868;DHT22;1949;48.152;11.528;2023-04-01T12:00:38;14.00;44.60
3868;DHT22;1949;48.152;11.528;2023-04-01T12:03:42;13.90;44.50
3868;DHT22;1949;48.152;11.528;2023-04-01T12:09:38;13.60;44.80
3868;DHT22;1949;48.152;11.528;2023-04-01T12:15:02;13.50;45.10
3868;DHT22;1949;48.152;11.528;2023-04-01T12:17:48;13.50;45.10
3868;DHT22;1949;48.152;11.528;2023-04-01T12:34:05;13.20;45.50
3868;DHT22;1949;48.152;11.528;2023-04-01T12:36:50;13.20;45.70
3868;DHT22;1949;48.152;11.528;2023-04-01T12:45:35;13.10;45.50
3868;DHT22;1949;48.152;11.528;2023-04-01T12:55:51;13.00;46.00
3868;DHT22;1949;48.152;11.528;2023-04-01T13:06:36;13.10;46.00
3868;DHT22;1949;48.152;11.528;2023-04-01T13:14:59;13.00;46.10
3868;DHT22;1949;48.152;11.528;2023-04-01T13:17:46;13.00;46.00
3868;DHT22;1949;48.152;11.528;2023-04-01T13:37:22;13.20;46.10
3868;DHT22;1949;48.152;11.528;2023-04-01T13:40:04;13.10;46.10
3868;DHT22;1949;48.152;11.528;2023-04-01T13:45:19;13.00;46.30
3868;DHT22;1949;48.152;11.528;2023-04-01T14:04:37;13.00;46.80
3868;DHT22;1949;48.152;11.528;2023-04-01T14:10:07;13.00;46.60
3868;DHT22;1949;48.152;11.528;2023-04-01T14:16:13;13.10;46.90
3868;DHT22;1949;48.152;11.528;2023-04-01T14:18:53;13.10;46.90
3868;DHT22;1949;48.152;11.528;2023-04-01T14:21:38;13.10;46.90
3868;DHT22;1949;48.152;11.528;2023-04-01T14:24:20;13.10;46.90
3868;DHT22;1949;48.152;11.528;2023-04-01T14:27:44;13.10;46.70
3868;DHT22;1949;48.152;11.528;2023-04-01T14:30:11;13.10;46.90
3868;DHT22;1949;48.152;11.528;2023-04-01T14:39:07;13.30;47.00
3868;DHT22;1949;48.152;11.528;2023-04-01T14:47:34;13.40;46.60
3868;DHT22;1949;48.152;11.528;2023-04-01T14:51:02;13.40;46.80
3868;DHT22;1949;48.152;11.528;2023-04-01T14:53:23;13.40;46.80
3868;DHT22;1949;48.152;11.528;2023-04-01T14:55:52;13.50;47.10
3868;DHT22;1949;48.152;11.528;2023-04-01T14:58:21;13.50;47.00
3868;DHT22;1949;48.152;11.528;2023-04-01T15:06:27;13.50;47.00
3868;DHT22;1949;48.152;11.528;2023-04-01T15:09:17;13.40;46.60
3868;DHT22;1949;48.152;11.528;2023-04-01T15:17:19;13.30;47.00
3868;DHT22;1949;48.152;11.528;2023-04-01T15:31:50;13.40;47.00
3868;DHT22;1949;48.152;11.528;2023-04-01T15:37:07;13.40;46.70
3868;DHT22;1949;48.152;11.528;2023-04-01T15:47:41;13.60;46.80
3868;DHT22;1949;48.152;11.528;2023-04-01T15:50:50;13.60;46.60
3868;DHT22;1949;48.152;11.528;2023-04-01T15:56:32;13.70;47.00
3868;DHT22;1949;48.152;11.528;2023-04-01T15:59:41;13.70;46.50
3868;DHT22;1949;48.152;11.528;2023-04-01T16:02:34;13.70;46.50
3868;DHT22;1949;48.152;11.528;2023-04-01T16:16:00;13.90;46.10
3868;DHT22;1949;48.152;11.528;2023-04-01T16:21:06;13.80;45.90
3868;DHT22;1949;48.152;11.528;2023-04-01T16:23:50;13.80;46.00
3868;DHT22;1949;48.152;11.528;2023-04-01T16:41:11;13.80;45.90
3868;DHT22;1949;48.152;11.528;2023-04-01T16:43:43;13.80;45.90
3868;DHT22;1949;48.152;11.528;2023-04-01T16:46:32;13.80;46.40
3868;DHT22;1949;48.152;11.528;2023-04-01T16:54:31;13.80;45.60
3868;DHT22;1949;48.152;11.528;2023-04-01T16:57:26;13.80;45.60
3868;DHT22;1949;48.152;11.528;2023-04-01T17:00:16;13.80;45.80
3868;DHT22;1949;48.152;11.528;2023-04-01T17:03:11;13.80;45.40
3868;DHT22;1949;48.152;11.528;2023-04-01T17:09:20;13.70;45.40
3868;DHT22;1949;48.152;11.528;2023-04-01T17:25:13;13.60;45.30
3868;DHT22;1949;48.152;11.528;2023-04-01T17:42:00;13.70;45.40
3868;DHT22;1949;48.152;11.528;2023-04-01T18:01:09;13.60;45.10
3868;DHT22;1949;48.152;11.528;2023-04-01T18:04:15;13.60;45.20
3868;DHT22;1949;48.152;11.528;2023-04-01T18:12:18;13.50;45.00
3868;DHT22;1949;48.152;11.528;2023-04-01T18:17:41;13.50;45.20
3868;DHT22;1949;48.152;11.528;2023-04-01T18:26:08;13.50;45.10
3868;DHT22;1949;48.152;11.528;2023-04-01T18:28:43;13.40;45.00
3868;DHT22;1949;48.152;11.528;2023-04-01T18:31:19;13.40;45.20
3868;DHT22;1949;48.152;11.528;2023-04-01T18:36:49;13.40;45.30
3868;DHT22;1949;48.152;11.528;2023-04-01T18:40:02;13.30;45.20
3868;DHT22;1949;48.152;11.528;2023-04-01T18:45:17;13.30;45.30
3868;DHT22;1949;48.152;11.528;2023-04-01T18:50:56;13.30;45.30
3868;DHT22;1949;48.152;11.528;2023-04-01T18:53:39;13.30;45.40
3868;DHT22;1949;48.152;11.528;2023-04-01T18:59:02;13.30;45.30
3868;DHT22;1949;48.152;11.528;2023-04-01T19:02:34;13.20;45.40
3868;DHT22;1949;48.152;11.528;2023-04-01T19:15:42;13.30;45.50
3868;DHT22;1949;48.152;11.528;2023-04-01T19:21:01;13.30;45.60
3868;DHT22;1949;48.152;11.528;2023-04-01T19:26:00;13.30;45.60
3868;DHT22;1949;48.152;11.528;2023-04-01T19:29:05;13.30;45.70
3868;DHT22;1949;48.152;11.528;2023-04-01T19:31:55;13.20;45.60
3868;DHT22;1949;48.152;11.528;2023-04-01T19:34:47;13.20;45.70
3868;DHT22;1949;48.152;11.528;2023-04-01T19:40:37;13.20;45.70
3868;DHT22;1949;48.152;11.528;2023-04-01T19:46:10;13.20;45.80
3868;DHT22;1949;48.152;11.528;2023-04-01T19:49:06;13.20;45.70
3868;DHT22;1949;48.152;11.528;2023-04-01T19:57:11;13.10;45.60
3868;DHT22;1949;48.152;11.528;2023-04-01T20:04:47;13.00;45.70
3868;DHT22;1949;48.152;11.528;2023-04-01T20:10:14;12.90;46.00
3868;DHT22;1949;48.152;11.528;2023-04-01T20:15:39;13.00;46.00
3868;DHT22;1949;48.152;11.528;2023-04-01T20:20:56;13.00;45.90
3868;DHT22;1949;48.152;11.528;2023-04-01T20:26:10;12.90;46.00
3868;DHT22;1949;48.152;11.528;2023-04-01T20:31:34;12.90;45.90
3868;DHT22;1949;48.152;11.528;2023-04-01T20:34:07;12.90;45.90
3868;DHT22;1949;48.152;11.528;2023-04-01T20:40:09;12.80;45.80
3868;DHT22;1949;48.152;11.528;2023-04-01T20:43:07;12.80;46.50
3868;DHT22;1949;48.152;11.528;2023-04-01T20:51:51;12.90;46.10
3868;DHT22;1949;48.152;11.528;2023-04-01T20:54:43;12.90;46.00
3868;DHT22;1949;48.152;11.528;2023-04-01T21:11:09;13.00;45.90
3868;DHT22;1949;48.152;11.528;2023-04-01T21:28:25;13.00;46.10
3868;DHT22;1949;48.152;11.528;2023-04-01T21:36:27;13.00;46.10
3868;DHT22;1949;48.152;11.528;2023-04-01T21:38:58;13.00;45.90
3868;DHT22;1949;48.152;11.528;2023-04-01T21:55:50;13.10;46.00
3868;DHT22;1949;48.152;11.528;2023-04-01T22:01:40;13.00;45.80
3868;DHT22;1949;48.152;11.528;2023-04-01T22:07:11;13.00;46.00
3868;DHT22;1949;48.152;11.528;2023-04-01T22:09:57;12.90;46.00
3868;DHT22;1949;48.152;11.528;2023-04-01T22:20:37;12.90;46.00
3868;DHT22;1949;48.152;11.528;2023-04-01T22:23:23;12.90;46.10
3868;DHT22;1949;48.152;11.528;2023-04-01T22:28:52;12.90;46.10
3868;DHT22;1949;48.152;11.528;2023-04-01T22:31:28;12.90;46.10
3868;DHT22;1949;48.152;11.528;2023-04-01T22:34:11;12.90;46.00
3868;DHT22;1949;48.152;11.528;2023-04-01T22:39:19;12.90;46.10
3868;DHT22;1949;48.152;11.528;2023-04-01T22:52:38;13.10;46.00
3868;DHT22;1949;48.152;11.528;2023-04-01T22:55:29;13.10;45.90
3868;DHT22;1949;48.152;11.528;2023-04-01T22:58:05;13.10;45.90
3868;DHT22;1949;48.152;11.528;2023-04-01T23:00:42;13.10;46.00
3868;DHT22;1949;48.152;11.528;2023-04-01T23:05:52;13.10;45.90
3868;DHT22;1949;48.152;11.528;2023-04-01T23:08:54;13.00;45.70
3868;DHT22;1949;48.152;11.528;2023-04-01T23:14:23;12.90;45.90
3868;DHT22;1949;48.152;11.528;2023-04-01T23:17:22;12.90;46.10
3868;DHT22;1949;48.152;11.528;2023-04-01T23:22:38;12.90;46.00
3868;DHT22;1949;48.152;11.528;2023-04-01T23:33:23;13.00;46.00
3868;DHT22;1949;48.152;11.528;2023-04-01T23:36:11;13.00;46.00
3868;DHT22;1949;48.152;11.528;2023-04-01T23:38:40;13.00;46.00
3868;DHT22;1949;48.152;11.528;2023-04-01T23:41:16;13.00;45.90
3868;DHT22;1949;48.152;11.528;2023-04-01T23:43:44;13.00;45.90
3868;DHT22;1949;48.152;11.528;2023-04-01T23:46:12;13.00;46.00
3868;DHT22;1949;48.152;11.528;2023-04-01T23:48:41;13.10;46.10
3868;DHT22;1949;48.152;11.528;2023-04-01T23:51:26;13.00;46.00
3868;DHT22;1949;48.152;11.528;2023-04-01T23:54:03;12.90;46.00
3868;DHT22;1949;48.152;11.528;2023-04-01T23:56:55;13.00;46.10
3868;DHT22;1949;48.152;11.528;2023-04-01T23:59:33;13.00;46.00
